Time;durP1;ratioP1;P1;durP2;ratioP2;P2;SDS_P1;SDS_P2;PMS_P1;PMS_P2;Temp;Humidity;BMP_temperature;BMP_pressure;BME280_temperature;BME280_humidity;BME280_pressure;Samples;Min_cycle;Max_cycle;Signal;HPM_P1;HPM_P2
2022/08/27 00:03:45;;;;;;;11.38;7.43;;;;;;;;;;8267073;28;20046;-93
2022/08/27 00:07:49;;;;;;;8.75;6.60;;;;;;;;;;8267573;28;20049;-93
2022/08/27 00:11:51;;;;;;;12.20;7.97;;;;;;;;;;8267191;28;20050;-93
2022/08/27 00:15:54;;;;;;;10.73;6.43;;;;;;;;;;8267194;28;20042;-92
2022/08/27 00:19:57;;;;;;;11.63;6.97;;;;;;;;;;8266394;28;20060;-92
2022/08/27 00:24:01;;;;;;;11.05;7.95;;;;;;;;;;8265943;28;20512;-92
2022/08/27 00:28:05;;;;;;;10.73;7.10;;;;;;;;;;8266179;28;20042;-91
2022/08/27 00:32:07;;;;;;;9.90;6.85;;;;;;;;;;8265812;28;20050;-92
2022/08/27 00:36:11;;;;;;;13.02;7.40;;;;;;;;;;8265582;28;20052;-91
2022/08/27 00:40:18;;;;;;;8.95;5.57;;;;;;;;;;8257418;28;20181;-92
2022/08/27 00:44:21;;;;;;;12.50;7.22;;;;;;;;;;8263597;28;20042;-93
2022/08/27 00:48:27;;;;;;;13.82;6.80;;;;;;;;;;8261520;28;20042;-91
2022/08/27 00:52:32;;;;;;;9.63;6.90;;;;;;;;;;8264237;28;20092;-92
2022/08/27 00:56:43;;;;;;;9.70;6.97;;;;;;;;;;8257063;28;20062;-92
2022/08/27 01:00:47;;;;;;;12.95;6.95;;;;;;;;;;8258727;28;20043;-91
2022/08/27 01:04:52;;;;;;;9.30;6.63;;;;;;;;;;8262671;28;20434;-91
2022/08/27 01:09:01;;;;;;;14.13;7.55;;;;;;;;;;8264709;28;20046;-94
2022/08/27 01:13:07;;;;;;;11.95;7.10;;;;;;;;;;8259567;28;20463;-90
2022/08/27 01:17:11;;;;;;;10.07;7.15;;;;;;;;;;8261541;28;20061;-91
2022/08/27 01:21:22;;;;;;;11.90;7.20;;;;;;;;;;8260087;28;20394;-93
2022/08/27 01:25:29;;;;;;;16.38;8.20;;;;;;;;;;8256415;28;20042;-93
2022/08/27 01:29:31;;;;;;;11.82;7.47;;;;;;;;;;8262200;28;20038;-92
2022/08/27 01:33:34;;;;;;;14.85;7.45;;;;;;;;;;8262079;28;20081;-94
2022/08/27 01:37:38;;;;;;;11.20;6.40;;;;;;;;;;8258707;28;20129;-93
2022/08/27 01:41:42;;;;;;;10.63;6.95;;;;;;;;;;8259146;28;20395;-93
2022/08/27 01:45:48;;;;;;;11.30;7.38;;;;;;;;;;8264134;28;20046;-93
2022/08/27 01:49:51;;;;;;;11.13;6.50;;;;;;;;;;8264584;28;20121;-94
2022/08/27 01:54:00;;;;;;;12.05;6.57;;;;;;;;;;8261673;28;20054;-92
2022/08/27 01:58:05;;;;;;;11.10;6.32;;;;;;;;;;8260430;28;20112;-92
2022/08/27 02:02:10;;;;;;;9.68;7.15;;;;;;;;;;8258595;28;20141;-92
2022/08/27 02:06:13;;;;;;;12.32;7.88;;;;;;;;;;8263751;28;20397;-92
2022/08/27 02:10:21;;;;;;;13.27;7.43;;;;;;;;;;8262310;28;20108;-91
2022/08/27 02:14:25;;;;;;;14.98;7.90;;;;;;;;;;8263581;28;20042;-92
2022/08/27 02:18:28;;;;;;;10.27;6.43;;;;;;;;;;8264051;28;20054;-92
2022/08/27 02:22:30;;;;;;;11.77;7.70;;;;;;;;;;8263152;28;20047;-91
2022/08/27 02:26:33;;;;;;;14.85;8.38;;;;;;;;;;8263298;28;20047;-91
2022/08/27 02:30:37;;;;;;;13.07;7.80;;;;;;;;;;8261689;28;20062;-91
2022/08/27 02:34:40;;;;;;;12.48;7.97;;;;;;;;;;8266924;28;20140;-93
2022/08/27 02:38:42;;;;;;;12.82;7.78;;;;;;;;;;8267859;28;20454;-93
2022/08/27 02:42:45;;;;;;;14.60;7.80;;;;;;;;;;8268376;28;20406;-91
2022/08/27 02:46:49;;;;;;;12.63;7.88;;;;;;;;;;8268245;28;20509;-92
2022/08/27 02:50:52;;;;;;;12.45;8.20;;;;;;;;;;8268030;28;20043;-92
2022/08/27 02:54:54;;;;;;;13.82;7.80;;;;;;;;;;8268005;28;20077;-91
2022/08/27 02:58:57;;;;;;;14.05;7.60;;;;;;;;;;8268368;28;20383;-91
2022/08/27 03:03:02;;;;;;;15.13;8.85;;;;;;;;;;8268237;28;20050;-92
2022/08/27 03:07:05;;;;;;;11.32;7.47;;;;;;;;;;8268121;28;20384;-93
2022/08/27 03:11:08;;;;;;;11.02;7.70;;;;;;;;;;8267800;28;20042;-92
2022/08/27 03:15:13;;;;;;;9.85;7.20;;;;;;;;;;8264707;28;20042;-92
2022/08/27 03:19:17;;;;;;;11.73;7.28;;;;;;;;;;8264171;28;20039;-93
2022/08/27 03:23:23;;;;;;;15.98;7.63;;;;;;;;;;8267838;28;20554;-93
2022/08/27 03:27:25;;;;;;;10.63;7.53;;;;;;;;;;8267239;28;20141;-92
2022/08/27 03:31:29;;;;;;;12.88;7.85;;;;;;;;;;8266804;28;20045;-92
2022/08/27 03:35:33;;;;;;;14.00;8.13;;;;;;;;;;8266977;28;20586;-91
2022/08/27 03:39:36;;;;;;;11.98;7.30;;;;;;;;;;8266131;28;20100;-92
2022/08/27 03:43:38;;;;;;;14.57;7.93;;;;;;;;;;8266198;28;20097;-92
2022/08/27 03:47:41;;;;;;;13.57;7.40;;;;;;;;;;8266758;28;20046;-92
2022/08/27 03:51:45;;;;;;;13.48;7.88;;;;;;;;;;8266538;28;20042;-91
2022/08/27 03:55:48;;;;;;;11.18;7.53;;;;;;;;;;8263110;28;20058;-92
2022/08/27 03:59:50;;;;;;;12.20;7.85;;;;;;;;;;8266196;28;20042;-93
2022/08/27 04:03:53;;;;;;;12.65;8.13;;;;;;;;;;8266007;28;20415;-92
2022/08/27 04:07:56;;;;;;;14.98;8.45;;;;;;;;;;8266084;28;20046;-91
2022/08/27 04:11:59;;;;;;;14.85;8.35;;;;;;;;;;8265610;28;20053;-92
2022/08/27 04:16:01;;;;;;;13.80;8.13;;;;;;;;;;8265493;28;20042;-91
2022/08/27 04:20:06;;;;;;;12.65;8.88;;;;;;;;;;8265469;28;20049;-91
2022/08/27 04:24:10;;;;;;;13.40;8.48;;;;;;;;;;8264877;28;20048;-90
2022/08/27 04:28:14;;;;;;;12.30;8.20;;;;;;;;;;8265569;28;20505;-91
2022/08/27 04:32:16;;;;;;;13.70;8.30;;;;;;;;;;8264685;28;20530;-91
2022/08/27 04:36:20;;;;;;;13.50;8.68;;;;;;;;;;8264457;28;20398;-90
2022/08/27 04:41:18;;;;;;;15.40;9.32;;;;;;;;;;8265096;28;20050;-92
2022/08/27 04:44:48;;;;;;;13.25;9.18;;;;;;;;;;8264899;28;20054;-91
2022/08/27 04:48:51;;;;;;;15.00;8.32;;;;;;;;;;8264986;28;20053;-93
2022/08/27 04:52:53;;;;;;;16.10;8.80;;;;;;;;;;8264830;28;20042;-92
2022/08/27 04:56:57;;;;;;;14.82;9.13;;;;;;;;;;8263991;28;20050;-92
2022/08/27 05:01:00;;;;;;;18.05;10.27;;;;;;;;;;8264657;28;20137;-91
2022/08/27 05:05:02;;;;;;;15.48;9.27;;;;;;;;;;8264527;28;20084;-90
2022/08/27 05:09:06;;;;;;;21.27;12.95;;;;;;;;;;8264528;28;20054;-91
2022/08/27 05:13:10;;;;;;;16.90;10.63;;;;;;;;;;8255703;28;20124;-91
2022/08/27 05:17:13;;;;;;;16.25;9.07;;;;;;;;;;8260554;28;20048;-93
2022/08/27 05:21:18;;;;;;;14.18;8.88;;;;;;;;;;8263080;28;20046;-92
2022/08/27 05:25:21;;;;;;;12.43;8.48;;;;;;;;;;8262782;28;20049;-91
2022/08/27 05:29:25;;;;;;;12.45;7.90;;;;;;;;;;8263642;28;20384;-91
2022/08/27 05:33:29;;;;;;;13.95;7.38;;;;;;;;;;8259173;28;20043;-91
2022/08/27 05:37:32;;;;;;;12.65;7.50;;;;;;;;;;8257698;28;20403;-92
2022/08/27 05:41:36;;;;;;;12.68;8.38;;;;;;;;;;8258184;28;20108;-91
2022/08/27 05:45:42;;;;;;;18.35;8.77;;;;;;;;;;8259460;28;20418;-91
2022/08/27 05:49:45;;;;;;;12.55;7.80;;;;;;;;;;8260587;28;20038;-91
2022/08/27 05:53:48;;;;;;;14.75;8.75;;;;;;;;;;8257325;28;20487;-92
2022/08/27 05:57:50;;;;;;;12.85;7.82;;;;;;;;;;8263877;28;20149;-91
2022/08/27 06:01:55;;;;;;;14.07;7.50;;;;;;;;;;8252444;28;20049;-91
2022/08/27 06:06:01;;;;;;;17.85;8.60;;;;;;;;;;8260836;28;20445;-91
2022/08/27 06:10:06;;;;;;;20.10;9.63;;;;;;;;;;8270273;28;20635;-92
2022/08/27 06:14:10;;;;;;;18.33;10.45;;;;;;;;;;8270830;28;20474;-90
2022/08/27 06:18:14;;;;;;;12.50;8.57;;;;;;;;;;8265281;28;20066;-91
2022/08/27 06:22:16;;;;;;;11.60;8.00;;;;;;;;;;8265363;28;20043;-96
2022/08/27 06:26:21;;;;;;;13.35;8.20;;;;;;;;;;8274606;28;20383;-96
2022/08/27 06:30:23;;;;;;;14.63;7.53;;;;;;;;;;8273707;28;20047;-94
2022/08/27 06:34:27;;;;;;;10.80;6.93;;;;;;;;;;8258477;28;20070;-96
2022/08/27 06:38:30;;;;;;;14.90;8.35;;;;;;;;;;8249372;28;20077;-96
2022/08/27 06:42:33;;;;;;;15.18;7.97;;;;;;;;;;8267859;28;20049;-93
2022/08/27 06:46:37;;;;;;;18.65;10.98;;;;;;;;;;8255725;28;20046;-92
2022/08/27 06:50:42;;;;;;;13.43;8.25;;;;;;;;;;8260527;28;20554;-90
2022/08/27 06:54:46;;;;;;;10.27;6.32;;;;;;;;;;8259595;28;20647;-91
2022/08/27 06:58:56;;;;;;;16.02;7.28;;;;;;;;;;8258829;28;20077;-92
2022/08/27 07:03:05;;;;;;;10.98;7.43;;;;;;;;;;8258681;28;20059;-91
2022/08/27 07:07:16;;;;;;;19.48;7.80;;;;;;;;;;8249973;28;20047;-91
2022/08/27 07:11:27;;;;;;;14.32;6.82;;;;;;;;;;8250978;28;20054;-93
2022/08/27 07:15:38;;;;;;;8.93;6.45;;;;;;;;;;8250895;28;20065;-94
2022/08/27 07:19:45;;;;;;;12.13;7.47;;;;;;;;;;8257191;28;20058;-92
2022/08/27 07:23:55;;;;;;;12.13;6.05;;;;;;;;;;8244474;28;20042;-88
2022/08/27 07:28:00;;;;;;;12.77;6.55;;;;;;;;;;8237739;28;20074;-89
2022/08/27 07:32:06;;;;;;;14.45;9.88;;;;;;;;;;8242798;28;20102;-90
2022/08/27 07:36:13;;;;;;;13.82;7.22;;;;;;;;;;8243011;28;20098;-89
2022/08/27 07:40:21;;;;;;;11.45;6.53;;;;;;;;;;8249925;28;20050;-92
2022/08/27 07:44:28;;;;;;;12.15;6.25;;;;;;;;;;8260040;28;20057;-92
2022/08/27 07:48:34;;;;;;;12.00;5.30;;;;;;;;;;8254605;28;20068;-93
2022/08/27 07:52:45;;;;;;;9.85;6.32;;;;;;;;;;8261716;28;20046;-92
2022/08/27 07:56:53;;;;;;;12.52;5.43;;;;;;;;;;8259541;28;20058;-94
2022/08/27 08:00:59;;;;;;;10.93;5.57;;;;;;;;;;8264309;28;20129;-93
2022/08/27 08:05:14;;;;;;;8.55;6.00;;;;;;;;;;8252586;28;20137;-92
2022/08/27 08:09:20;;;;;;;31.75;14.85;;;;;;;;;;8259068;28;20041;-92
2022/08/27 08:13:25;;;;;;;11.90;7.50;;;;;;;;;;8257456;28;20129;-90
2022/08/27 08:17:27;;;;;;;24.42;13.02;;;;;;;;;;8261914;28;20483;-92
2022/08/27 08:21:30;;;;;;;19.55;7.07;;;;;;;;;;8264195;28;20081;-93
2022/08/27 08:25:33;;;;;;;8.70;5.20;;;;;;;;;;8265748;28;20096;-92
2022/08/27 08:29:38;;;;;;;10.15;4.60;;;;;;;;;;8262340;28;20505;-92
2022/08/27 08:33:40;;;;;;;21.55;11.70;;;;;;;;;;8259814;28;20046;-92
2022/08/27 08:37:43;;;;;;;12.93;8.10;;;;;;;;;;8265451;28;20046;-92
2022/08/27 08:41:51;;;;;;;19.75;8.57;;;;;;;;;;8264761;28;20501;-91
2022/08/27 08:45:58;;;;;;;16.75;8.57;;;;;;;;;;8265087;28;20054;-93
2022/08/27 08:50:05;;;;;;;9.13;5.10;;;;;;;;;;8265203;28;20133;-92
2022/08/27 08:54:11;;;;;;;11.80;4.88;;;;;;;;;;8264994;28;20054;-91
2022/08/27 08:58:21;;;;;;;15.02;8.85;;;;;;;;;;8264746;28;20046;-91
2022/08/27 09:02:27;;;;;;;20.98;11.82;;;;;;;;;;8258571;28;20229;-93
2022/08/27 09:06:40;;;;;;;13.25;6.20;;;;;;;;;;8264821;28;20046;-92
2022/08/27 09:10:48;;;;;;;9.63;4.72;;;;;;;;;;8264641;28;20502;-93
2022/08/27 09:14:55;;;;;;;9.85;4.53;;;;;;;;;;8259053;28;20050;-93
2022/08/27 09:19:02;;;;;;;9.55;4.82;;;;;;;;;;8263227;28;20050;-92
2022/08/27 09:23:14;;;;;;;12.82;4.95;;;;;;;;;;8261429;28;20137;-93
2022/08/27 09:27:16;;;;;;;11.02;4.40;;;;;;;;;;8262709;28;20046;-93
2022/08/27 09:31:21;;;;;;;10.98;5.50;;;;;;;;;;8261465;28;20113;-92
2022/08/27 09:35:27;;;;;;;9.88;4.60;;;;;;;;;;8262837;28;20042;-94
2022/08/27 09:39:35;;;;;;;7.80;4.03;;;;;;;;;;8257639;28;20410;-93
2022/08/27 09:43:42;;;;;;;9.07;4.10;;;;;;;;;;8259590;28;20046;-89
2022/08/27 09:47:47;;;;;;;9.00;4.00;;;;;;;;;;8277221;28;20077;-88
2022/08/27 09:51:52;;;;;;;12.63;4.15;;;;;;;;;;8277584;28;20065;-92
2022/08/27 09:55:59;;;;;;;12.52;5.03;;;;;;;;;;8278213;28;20502;-94
2022/08/27 10:00:02;;;;;;;8.15;3.90;;;;;;;;;;8263644;28;20047;-93
2022/08/27 10:04:08;;;;;;;14.85;4.70;;;;;;;;;;8258466;28;20466;-94
2022/08/27 10:08:22;;;;;;;8.20;4.03;;;;;;;;;;8255951;28;20120;-93
2022/08/27 10:12:29;;;;;;;12.60;4.35;;;;;;;;;;8263745;28;20482;-93
2022/08/27 10:16:51;;;;;;;12.40;4.00;;;;;;;;;;8259223;28;20059;-93
2022/08/27 10:21:07;;;;;;;8.48;3.83;;;;;;;;;;8256390;28;20057;-93
2022/08/27 10:25:22;;;;;;;17.10;3.95;;;;;;;;;;8249542;28;20066;-94
2022/08/27 10:29:36;;;;;;;18.48;4.35;;;;;;;;;;8258820;28;20123;-92
2022/08/27 10:33:48;;;;;;;14.77;4.15;;;;;;;;;;8242451;28;20065;-92
2022/08/27 10:38:04;;;;;;;13.98;4.25;;;;;;;;;;8259353;28;20046;-94
2022/08/27 10:42:25;;;;;;;11.80;4.25;;;;;;;;;;8258542;28;20487;-92
2022/08/27 10:46:49;;;;;;;8.13;4.18;;;;;;;;;;8256709;28;20475;-90
2022/08/27 10:50:57;;;;;;;12.90;4.28;;;;;;;;;;8262192;28;20057;-91
2022/08/27 10:55:05;;;;;;;13.27;5.47;;;;;;;;;;8255109;28;20508;-92
2022/08/27 10:59:24;;;;;;;11.88;4.88;;;;;;;;;;8257668;28;20097;-90
2022/08/27 11:03:34;;;;;;;13.75;4.28;;;;;;;;;;8260011;28;20061;-91
2022/08/27 11:07:40;;;;;;;11.70;3.92;;;;;;;;;;8260817;28;20051;-90
2022/08/27 11:11:47;;;;;;;11.20;4.30;;;;;;;;;;8258861;28;20415;-92
2022/08/27 11:15:55;;;;;;;13.18;4.40;;;;;;;;;;8251894;28;20580;-91
2022/08/27 11:20:05;;;;;;;10.80;4.38;;;;;;;;;;8257797;28;20045;-92
2022/08/27 11:24:21;;;;;;;10.45;4.20;;;;;;;;;;8256269;28;20038;-92
2022/08/27 11:28:36;;;;;;;11.55;4.32;;;;;;;;;;8262684;28;20058;-89
2022/08/27 11:32:52;;;;;;;10.35;4.43;;;;;;;;;;8258938;28;20521;-90
2022/08/27 11:37:30;;;;;;;11.98;4.65;;;;;;;;;;8254613;28;20064;-92
2022/08/27 11:41:50;;;;;;;11.52;4.88;;;;;;;;;;8235037;28;20144;-95
2022/08/27 11:45:56;;;;;;;14.15;5.07;;;;;;;;;;8260496;28;20518;-94
2022/08/27 11:50:06;;;;;;;13.32;5.25;;;;;;;;;;8267675;28;20039;-94
2022/08/27 11:54:24;;;;;;;11.73;4.50;;;;;;;;;;8259555;28;20112;-96
2022/08/27 11:58:32;;;;;;;8.10;4.70;;;;;;;;;;8245536;28;20062;-94
2022/08/27 12:02:35;;;;;;;15.95;4.75;;;;;;;;;;8259284;28;20178;-95
2022/08/27 12:06:45;;;;;;;14.57;4.72;;;;;;;;;;8266261;28;20047;-95
2022/08/27 12:11:03;;;;;;;10.63;5.28;;;;;;;;;;8267464;28;20045;-94
2022/08/27 12:15:10;;;;;;;14.02;5.53;;;;;;;;;;8265019;28;20461;-96
2022/08/27 12:19:36;;;;;;;9.93;4.40;;;;;;;;;;8262617;28;20057;-93
2022/08/27 12:23:50;;;;;;;11.00;4.72;;;;;;;;;;8257126;28;20403;-93
2022/08/27 12:27:58;;;;;;;19.60;4.97;;;;;;;;;;8256130;28;20134;-93
2022/08/27 12:32:07;;;;;;;12.00;4.47;;;;;;;;;;8256078;28;20379;-94
2022/08/27 12:36:14;;;;;;;11.55;4.75;;;;;;;;;;8256604;28;20065;-95
2022/08/27 12:40:26;;;;;;;7.07;4.50;;;;;;;;;;8243358;28;20049;-94
2022/08/27 12:44:33;;;;;;;10.30;4.72;;;;;;;;;;8250074;28;20049;-93
2022/08/27 12:48:42;;;;;;;10.07;5.13;;;;;;;;;;8253158;28;20100;-94
2022/08/27 12:52:59;;;;;;;12.52;5.07;;;;;;;;;;8257588;28;20133;-91
2022/08/27 12:57:09;;;;;;;10.98;5.15;;;;;;;;;;8233651;28;20116;-88
2022/08/27 13:01:42;;;;;;;10.50;4.90;;;;;;;;;;8257951;28;20046;-93
2022/08/27 13:05:47;;;;;;;12.02;4.95;;;;;;;;;;8258839;28;20565;-91
2022/08/27 13:09:56;;;;;;;17.15;5.10;;;;;;;;;;8265668;28;20046;-92
2022/08/27 13:14:09;;;;;;;10.82;5.15;;;;;;;;;;8256956;28;20053;-94
2022/08/27 13:18:12;;;;;;;9.90;4.80;;;;;;;;;;8262390;28;20042;-93
2022/08/27 13:22:22;;;;;;;12.98;5.30;;;;;;;;;;8262058;28;20046;-93
2022/08/27 13:26:28;;;;;;;16.98;5.25;;;;;;;;;;8262055;28;20052;-94
2022/08/27 13:30:32;;;;;;;12.30;5.30;;;;;;;;;;8265563;28;20038;-95
2022/08/27 13:34:39;;;;;;;12.48;5.10;;;;;;;;;;8265002;28;20042;-93
2022/08/27 13:38:45;;;;;;;11.40;5.10;;;;;;;;;;8266546;28;20405;-95
2022/08/27 13:42:49;;;;;;;9.18;4.45;;;;;;;;;;8266080;28;20042;-94
2022/08/27 13:47:00;;;;;;;11.50;4.95;;;;;;;;;;8265968;28;20124;-95
2022/08/27 13:51:05;;;;;;;11.35;5.13;;;;;;;;;;8266513;28;20070;-95
2022/08/27 13:55:15;;;;;;;13.43;4.75;;;;;;;;;;8265937;28;20071;-94
2022/08/27 13:59:25;;;;;;;9.77;4.80;;;;;;;;;;8266054;28;20038;-95
2022/08/27 14:03:33;;;;;;;8.68;4.65;;;;;;;;;;8267992;28;20108;-96
2022/08/27 14:07:46;;;;;;;14.43;4.78;;;;;;;;;;8267187;28;20079;-95
2022/08/27 14:11:57;;;;;;;15.40;5.13;;;;;;;;;;8266832;28;20049;-95
2022/08/27 14:16:12;;;;;;;13.82;5.03;;;;;;;;;;8289397;28;20030;-95
2022/08/27 14:20:19;;;;;;;12.23;5.57;;;;;;;;;;8332010;23;20042;-94
2022/08/27 14:24:22;;;;;;;13.15;4.60;;;;;;;;;;8294405;28;20146;-94
2022/08/27 14:28:25;;;;;;;8.95;4.57;;;;;;;;;;8277752;28;20050;-95
2022/08/27 14:32:34;;;;;;;9.85;4.50;;;;;;;;;;8267743;28;20080;-93
2022/08/27 14:36:39;;;;;;;11.27;5.20;;;;;;;;;;8271812;28;20069;-95
2022/08/27 14:40:42;;;;;;;12.13;5.35;;;;;;;;;;8271734;28;20058;-95
2022/08/27 14:44:45;;;;;;;10.85;5.55;;;;;;;;;;8272523;28;20054;-96
2022/08/27 14:48:48;;;;;;;11.77;4.85;;;;;;;;;;8272010;28;20100;-95
2022/08/27 14:52:55;;;;;;;11.73;5.25;;;;;;;;;;8271378;28;20060;-96
2022/08/27 14:57:01;;;;;;;10.48;4.75;;;;;;;;;;8271790;28;20096;-95
2022/08/27 15:01:04;;;;;;;17.80;5.35;;;;;;;;;;8274906;28;20043;-94
2022/08/27 15:05:07;;;;;;;9.48;4.93;;;;;;;;;;8279600;28;20050;-95
2022/08/27 15:09:17;;;;;;;11.32;6.78;;;;;;;;;;8278646;28;20061;-95
2022/08/27 15:13:20;;;;;;;11.20;5.32;;;;;;;;;;8284378;28;20042;-95
2022/08/27 15:17:22;;;;;;;9.63;4.97;;;;;;;;;;8300740;28;20050;-94
2022/08/27 15:21:30;;;;;;;13.88;6.03;;;;;;;;;;8285504;28;20133;-95
2022/08/27 15:25:34;;;;;;;18.80;6.03;;;;;;;;;;8282612;28;20047;-95
2022/08/27 15:29:37;;;;;;;11.48;5.82;;;;;;;;;;8279310;28;20046;-95
2022/08/27 15:33:39;;;;;;;8.70;5.32;;;;;;;;;;8272395;28;20058;-95
2022/08/27 15:37:44;;;;;;;11.40;6.55;;;;;;;;;;8271483;28;20121;-95
2022/08/27 15:41:48;;;;;;;14.63;6.53;;;;;;;;;;8269196;28;20054;-94
2022/08/27 15:45:51;;;;;;;14.15;6.72;;;;;;;;;;8269877;28;20050;-94
2022/08/27 15:49:53;;;;;;;14.95;6.60;;;;;;;;;;8269869;28;20045;-94
2022/08/27 15:53:56;;;;;;;19.88;11.80;;;;;;;;;;8255754;28;20065;-95
2022/08/27 15:58:00;;;;;;;27.90;12.98;;;;;;;;;;8262772;28;20076;-95
2022/08/27 16:02:11;;;;;;;50.03;28.25;;;;;;;;;;8268980;28;20048;-94
2022/08/27 16:06:15;;;;;;;71.68;40.40;;;;;;;;;;8269777;23;20139;-94
2022/08/27 16:10:18;;;;;;;91.30;47.85;;;;;;;;;;8267372;28;20046;-95
2022/08/27 16:14:23;;;;;;;72.85;37.92;;;;;;;;;;8268706;23;20081;-95
2022/08/27 16:18:28;;;;;;;78.28;39.63;;;;;;;;;;8269032;28;20057;-95
2022/08/27 16:22:34;;;;;;;60.20;35.35;;;;;;;;;;8267817;28;20061;-95
2022/08/27 16:26:38;;;;;;;70.10;38.50;;;;;;;;;;8268501;28;20051;-94
2022/08/27 16:30:43;;;;;;;63.08;37.85;;;;;;;;;;8269053;28;20639;-95
2022/08/27 16:34:51;;;;;;;62.50;38.60;;;;;;;;;;8271514;28;20113;-95
2022/08/27 16:38:54;;;;;;;32.53;22.88;;;;;;;;;;8268152;28;20482;-95
2022/08/27 16:43:02;;;;;;;53.00;34.60;;;;;;;;;;8268112;28;20471;-94
2022/08/27 16:47:14;;;;;;;109.72;76.22;;;;;;;;;;8268014;28;20050;-95
2022/08/27 16:51:18;;;;;;;182.55;103.43;;;;;;;;;;8267545;28;20046;-94
2022/08/27 16:55:21;;;;;;;68.10;45.35;;;;;;;;;;8268066;28;20550;-94
2022/08/27 16:59:23;;;;;;;152.93;93.75;;;;;;;;;;8267658;28;20549;-94
2022/08/27 17:03:29;;;;;;;45.78;31.27;;;;;;;;;;8267529;28;20042;-94
2022/08/27 17:07:32;;;;;;;29.05;19.73;;;;;;;;;;8267534;28;20050;-94
2022/08/27 17:11:39;;;;;;;17.52;10.68;;;;;;;;;;8267217;28;20471;-94
2022/08/27 17:15:46;;;;;;;17.85;9.23;;;;;;;;;;8267033;28;20516;-94
2022/08/27 17:19:50;;;;;;;13.10;8.38;;;;;;;;;;8267128;28;20047;-95
2022/08/27 17:24:00;;;;;;;11.48;8.80;;;;;;;;;;8266914;28;20197;-94
2022/08/27 17:28:03;;;;;;;11.75;7.65;;;;;;;;;;8266917;28;20042;-94
2022/08/27 17:32:09;;;;;;;15.30;9.48;;;;;;;;;;8266844;28;20402;-95
2022/08/27 17:40:53;;;;;;;17.20;8.05;;;;;;;;;;8234821;28;20145;-94
2022/08/27 17:45:11;;;;;;;149.50;105.32;;;;;;;;;;8233530;28;20438;-94
2022/08/27 17:49:21;;;;;;;315.85;217.13;;;;;;;;;;8234216;28;20115;-94
2022/08/27 17:53:24;;;;;;;42.40;27.85;;;;;;;;;;8234382;28;20533;-94
2022/08/27 17:57:29;;;;;;;21.23;13.52;;;;;;;;;;8234459;28;20061;-95
2022/08/27 18:01:40;;;;;;;13.98;10.25;;;;;;;;;;8235003;28;20077;-93
2022/08/27 18:05:43;;;;;;;48.97;27.73;;;;;;;;;;8239899;28;20056;-93
2022/08/27 18:09:47;;;;;;;32.92;19.02;;;;;;;;;;8240289;28;20532;-93
2022/08/27 18:13:53;;;;;;;16.83;9.90;;;;;;;;;;8238970;28;20051;-93
2022/08/27 18:17:56;;;;;;;22.23;14.68;;;;;;;;;;8239989;28;20043;-93
2022/08/27 18:21:59;;;;;;;21.52;12.18;;;;;;;;;;8239817;28;20049;-94
2022/08/27 18:26:04;;;;;;;24.45;17.15;;;;;;;;;;8228132;28;20069;-93
2022/08/27 18:30:08;;;;;;;33.03;19.90;;;;;;;;;;8239602;28;20101;-93
2022/08/27 18:34:11;;;;;;;45.05;32.25;;;;;;;;;;8239400;28;20053;-93
2022/08/27 18:38:14;;;;;;;62.47;46.30;;;;;;;;;;8238982;28;20050;-93
2022/08/27 18:42:18;;;;;;;72.00;54.38;;;;;;;;;;8238711;28;20483;-94
2022/08/27 18:46:28;;;;;;;22.20;16.35;;;;;;;;;;8237414;28;20572;-96
2022/08/27 18:50:30;;;;;;;16.55;10.43;;;;;;;;;;8236709;28;20101;-96
2022/08/27 18:54:33;;;;;;;17.38;10.48;;;;;;;;;;8226154;28;20483;-94
2022/08/27 18:58:39;;;;;;;17.58;10.10;;;;;;;;;;8227190;28;20055;-96
2022/08/27 19:02:43;;;;;;;19.35;11.95;;;;;;;;;;8231515;28;20047;-96
2022/08/27 19:06:48;;;;;;;20.50;10.95;;;;;;;;;;8227665;28;20050;-93
2022/08/27 19:10:51;;;;;;;18.00;10.82;;;;;;;;;;8227379;28;20687;-94
2022/08/27 19:14:59;;;;;;;17.25;9.40;;;;;;;;;;8224378;28;20121;-93
2022/08/27 19:19:04;;;;;;;21.05;10.07;;;;;;;;;;8226579;28;20046;-93
2022/08/27 19:23:07;;;;;;;20.77;10.10;;;;;;;;;;8230939;28;20049;-93
2022/08/27 19:27:10;;;;;;;16.05;9.15;;;;;;;;;;8227548;28;20050;-93
2022/08/27 19:31:19;;;;;;;14.32;9.18;;;;;;;;;;8226734;28;20407;-94
2022/08/27 19:35:23;;;;;;;19.20;9.90;;;;;;;;;;8229249;28;20051;-93
2022/08/27 19:39:26;;;;;;;14.43;9.90;;;;;;;;;;8229911;28;20053;-94
2022/08/27 19:43:29;;;;;;;19.85;11.40;;;;;;;;;;8225610;28;20125;-91
2022/08/27 19:47:34;;;;;;;15.65;9.30;;;;;;;;;;8226547;28;20070;-92
2022/08/27 19:51:40;;;;;;;15.43;9.63;;;;;;;;;;8236428;28;20054;-91
2022/08/27 19:55:44;;;;;;;21.63;10.55;;;;;;;;;;8237767;28;20383;-92
2022/08/27 19:59:47;;;;;;;17.42;8.93;;;;;;;;;;8223181;28;22143;-94
2022/08/27 20:03:54;;;;;;;15.27;8.85;;;;;;;;;;8230844;28;20118;-94
2022/08/27 20:07:59;;;;;;;19.95;9.07;;;;;;;;;;8227383;28;20457;-94
2022/08/27 20:12:04;;;;;;;20.08;10.00;;;;;;;;;;8217381;28;20059;-94
2022/08/27 20:16:10;;;;;;;13.27;8.82;;;;;;;;;;8226787;28;20116;-95
2022/08/27 20:20:15;;;;;;;14.63;8.73;;;;;;;;;;8232204;28;20126;-94
2022/08/27 20:24:18;;;;;;;17.92;9.48;;;;;;;;;;8235759;28;20050;-95
2022/08/27 20:28:22;;;;;;;16.42;9.52;;;;;;;;;;8235297;28;20069;-95
2022/08/27 20:32:25;;;;;;;18.55;9.15;;;;;;;;;;8235272;28;20051;-94
2022/08/27 20:36:31;;;;;;;18.30;9.35;;;;;;;;;;8232687;28;20042;-93
2022/08/27 20:40:34;;;;;;;14.63;8.57;;;;;;;;;;8235180;28;20137;-94
2022/08/27 20:44:37;;;;;;;20.10;9.20;;;;;;;;;;8235081;28;20042;-94
2022/08/27 20:48:40;;;;;;;16.45;8.60;;;;;;;;;;8234724;28;20454;-93
2022/08/27 20:52:44;;;;;;;14.93;8.10;;;;;;;;;;8234545;28;20043;-92
2022/08/27 20:56:47;;;;;;;15.30;8.43;;;;;;;;;;8231875;28;20185;-94
2022/08/27 21:00:52;;;;;;;24.50;13.02;;;;;;;;;;8222947;28;20050;-95
2022/08/27 21:04:56;;;;;;;16.83;10.38;;;;;;;;;;8234259;28;20079;-94
2022/08/27 21:09:00;;;;;;;28.02;18.08;;;;;;;;;;8234011;28;20042;-93
2022/08/27 21:13:03;;;;;;;29.42;16.05;;;;;;;;;;8233886;28;20051;-93
2022/08/27 21:17:06;;;;;;;17.58;12.27;;;;;;;;;;8233832;28;20107;-93
2022/08/27 21:21:09;;;;;;;25.73;12.63;;;;;;;;;;8233777;28;20450;-93
2022/08/27 21:25:14;;;;;;;19.50;10.77;;;;;;;;;;8234081;28;20043;-94
2022/08/27 21:29:18;;;;;;;11.35;8.20;;;;;;;;;;8233774;28;20125;-94
2022/08/27 21:33:21;;;;;;;17.27;8.85;;;;;;;;;;8233536;28;20043;-94
2022/08/27 21:37:24;;;;;;;15.23;7.95;;;;;;;;;;8233715;28;20050;-93
2022/08/27 21:41:28;;;;;;;17.65;9.07;;;;;;;;;;8240398;28;20049;-94
2022/08/27 21:45:31;;;;;;;17.23;8.80;;;;;;;;;;8240333;28;20050;-94
2022/08/27 21:49:34;;;;;;;23.17;10.07;;;;;;;;;;8239267;28;20049;-93
2022/08/27 21:53:38;;;;;;;14.82;8.02;;;;;;;;;;8239994;28;20057;-93
2022/08/27 21:57:41;;;;;;;17.48;9.43;;;;;;;;;;8239635;28;20047;-93
2022/08/27 22:01:44;;;;;;;18.80;8.75;;;;;;;;;;8239437;28;20049;-94
2022/08/27 22:05:47;;;;;;;15.68;8.70;;;;;;;;;;8239512;28;20121;-93
2022/08/27 22:09:50;;;;;;;14.48;9.20;;;;;;;;;;8239400;28;20053;-93
2022/08/27 22:13:54;;;;;;;18.92;9.77;;;;;;;;;;8239502;28;20047;-95
2022/08/27 22:17:57;;;;;;;15.57;8.77;;;;;;;;;;8239225;28;20051;-95
2022/08/27 22:22:05;;;;;;;16.88;9.52;;;;;;;;;;8239454;28;20043;-92
2022/08/27 22:26:08;;;;;;;18.70;8.57;;;;;;;;;;8233448;28;20046;-93
2022/08/27 22:30:13;;;;;;;19.92;8.80;;;;;;;;;;8238745;28;20101;-94
2022/08/27 22:34:17;;;;;;;17.45;8.25;;;;;;;;;;8238594;28;20042;-94
2022/08/27 22:38:19;;;;;;;19.38;9.20;;;;;;;;;;8232023;28;20083;-92
2022/08/27 22:42:22;;;;;;;17.17;9.48;;;;;;;;;;8238249;28;20046;-93
2022/08/27 22:46:26;;;;;;;18.13;9.13;;;;;;;;;;8237926;28;20042;-94
2022/08/27 22:50:29;;;;;;;15.25;9.80;;;;;;;;;;8237634;28;20047;-93
2022/08/27 22:54:32;;;;;;;17.80;9.60;;;;;;;;;;8238161;28;20046;-94
2022/08/27 22:58:34;;;;;;;17.92;9.35;;;;;;;;;;8235793;28;20428;-94
2022/08/27 23:02:46;;;;;;;17.85;10.00;;;;;;;;;;8238204;28;20055;-95
2022/08/27 23:06:49;;;;;;;18.70;8.35;;;;;;;;;;8237707;28;20047;-93
2022/08/27 23:10:53;;;;;;;14.10;8.20;;;;;;;;;;8237721;28;20047;-93
2022/08/27 23:14:56;;;;;;;15.00;8.27;;;;;;;;;;8237274;28;20047;-93
2022/08/27 23:19:00;;;;;;;18.98;9.55;;;;;;;;;;8237248;28;20039;-93
2022/08/27 23:23:03;;;;;;;17.35;8.27;;;;;;;;;;8236990;28;20117;-93
2022/08/27 23:31:26;;;;;;;15.52;9.02;;;;;;;;;;8236984;28;20042;-94
2022/08/27 23:35:30;;;;;;;18.08;9.07;;;;;;;;;;8236638;28;20046;-93
2022/08/27 23:39:33;;;;;;;15.63;10.00;;;;;;;;;;8235582;28;20137;-94
2022/08/27 23:43:36;;;;;;;17.13;8.77;;;;;;;;;;8235413;28;20046;-89
2022/08/27 23:47:38;;;;;;;16.33;9.52;;;;;;;;;;8236679;28;20051;-93
2022/08/27 23:51:43;;;;;;;17.00;10.07;;;;;;;;;;8236066;28;20447;-93
2022/08/27 23:55:45;;;;;;;19.48;10.65;;;;;;;;;;8234081;28;20129;-91
2022/08/27 23:59:48;;;;;;;17.02;9.40;;;;;;;;;;8234130;28;20047;-90
